sensor_id;sensor_type;location;lat;lon;timestamp;temperature;humidity
18717;DHT22;9487;50.892;6.906;2022-08-19T00:01:59;20.70;99.90
18717;DHT22;9487;50.892;6.906;2022-08-19T00:04:35;20.60;99.90
18717;DHT22;9487;50.892;6.906;2022-08-19T00:07:04;20.50;99.90
18717;DHT22;9487;50.892;6.906;2022-08-19T00:09:31;20.50;99.90
18717;DHT22;9487;50.892;6.906;2022-08-19T00:11:58;20.50;99.90
18717;DHT22;9487;50.892;6.906;2022-08-19T00:14:26;20.40;99.90
18717;DHT22;9487;50.892;6.906;2022-08-19T00:16:55;20.40;99.90
18717;DHT22;9487;50.892;6.906;2022-08-19T00:19:23;20.30;99.90
18717;DHT22;9487;50.892;6.906;2022-08-19T00:21:52;20.30;99.90
18717;DHT22;9487;50.892;6.906;2022-08-19T00:24:19;20.30;99.90
18717;DHT22;9487;50.892;6.906;2022-08-19T00:26:46;20.30;99.90
18717;DHT22;9487;50.892;6.906;2022-08-19T00:29:16;20.40;99.90
18717;DHT22;9487;50.892;6.906;2022-08-19T00:31:44;20.50;99.90
18717;DHT22;9487;50.892;6.906;2022-08-19T00:34:11;20.60;99.90
18717;DHT22;9487;50.892;6.906;2022-08-19T00:36:38;20.60;99.90
18717;DHT22;9487;50.892;6.906;2022-08-19T00:39:07;20.50;99.90
18717;DHT22;9487;50.892;6.906;2022-08-19T00:41:34;20.50;99.90
18717;DHT22;9487;50.892;6.906;2022-08-19T00:44:06;20.20;99.90
18717;DHT22;9487;50.892;6.906;2022-08-19T00:46:35;20.00;99.90
18717;DHT22;9487;50.892;6.906;2022-08-19T00:49:06;19.90;99.90
18717;DHT22;9487;50.892;6.906;2022-08-19T00:51:36;19.80;99.90
18717;DHT22;9487;50.892;6.906;2022-08-19T00:54:04;19.70;99.90
18717;DHT22;9487;50.892;6.906;2022-08-19T00:56:32;19.70;99.90
18717;DHT22;9487;50.892;6.906;2022-08-19T00:59:01;19.80;99.90
18717;DHT22;9487;50.892;6.906;2022-08-19T01:01:28;19.70;99.90
18717;DHT22;9487;50.892;6.906;2022-08-19T01:03:55;19.70;99.90
18717;DHT22;9487;50.892;6.906;2022-08-19T01:06:22;19.60;99.90
18717;DHT22;9487;50.892;6.906;2022-08-19T01:08:49;19.60;99.90
18717;DHT22;9487;50.892;6.906;2022-08-19T01:11:17;19.50;99.90
18717;DHT22;9487;50.892;6.906;2022-08-19T01:13:46;19.40;99.90
18717;DHT22;9487;50.892;6.906;2022-08-19T01:16:13;19.40;99.90
18717;DHT22;9487;50.892;6.906;2022-08-19T01:18:42;19.40;99.90
18717;DHT22;9487;50.892;6.906;2022-08-19T01:21:12;19.40;99.90
18717;DHT22;9487;50.892;6.906;2022-08-19T01:23:45;19.40;99.90
18717;DHT22;9487;50.892;6.906;2022-08-19T01:26:15;19.50;99.90
18717;DHT22;9487;50.892;6.906;2022-08-19T01:28:43;19.40;99.90
18717;DHT22;9487;50.892;6.906;2022-08-19T01:31:13;19.30;99.90
18717;DHT22;9487;50.892;6.906;2022-08-19T01:33:40;19.30;99.90
18717;DHT22;9487;50.892;6.906;2022-08-19T01:36:10;19.30;99.90
18717;DHT22;9487;50.892;6.906;2022-08-19T01:38:39;19.30;99.90
18717;DHT22;9487;50.892;6.906;2022-08-19T01:41:09;19.30;99.90
18717;DHT22;9487;50.892;6.906;2022-08-19T01:43:36;19.20;99.90
18717;DHT22;9487;50.892;6.906;2022-08-19T01:46:04;19.10;99.90
18717;DHT22;9487;50.892;6.906;2022-08-19T01:48:34;19.10;99.90
18717;DHT22;9487;50.892;6.906;2022-08-19T01:51:02;19.00;99.90
18717;DHT22;9487;50.892;6.906;2022-08-19T01:53:30;19.00;99.90
18717;DHT22;9487;50.892;6.906;2022-08-19T01:55:57;19.00;99.90
18717;DHT22;9487;50.892;6.906;2022-08-19T01:58:29;19.10;99.90
18717;DHT22;9487;50.892;6.906;2022-08-19T02:00:58;19.20;99.90
18717;DHT22;9487;50.892;6.906;2022-08-19T02:03:25;19.50;99.90
18717;DHT22;9487;50.892;6.906;2022-08-19T02:05:56;19.60;99.90
18717;DHT22;9487;50.892;6.906;2022-08-19T02:08:25;19.70;99.90
18717;DHT22;9487;50.892;6.906;2022-08-19T02:10:52;19.80;99.90
18717;DHT22;9487;50.892;6.906;2022-08-19T02:13:19;19.80;99.90
18717;DHT22;9487;50.892;6.906;2022-08-19T02:15:48;19.70;99.90
18717;DHT22;9487;50.892;6.906;2022-08-19T02:18:15;19.70;99.90
18717;DHT22;9487;50.892;6.906;2022-08-19T02:20:42;19.80;99.90
18717;DHT22;9487;50.892;6.906;2022-08-19T02:23:11;19.80;99.90
18717;DHT22;9487;50.892;6.906;2022-08-19T02:25:39;19.80;99.90
18717;DHT22;9487;50.892;6.906;2022-08-19T02:28:07;19.70;99.90
18717;DHT22;9487;50.892;6.906;2022-08-19T02:30:34;19.70;99.90
18717;DHT22;9487;50.892;6.906;2022-08-19T02:33:02;19.80;99.90
18717;DHT22;9487;50.892;6.906;2022-08-19T02:35:30;19.80;99.90
18717;DHT22;9487;50.892;6.906;2022-08-19T02:37:57;19.70;99.90
18717;DHT22;9487;50.892;6.906;2022-08-19T02:40:48;19.60;99.90
18717;DHT22;9487;50.892;6.906;2022-08-19T02:43:16;19.40;99.90
18717;DHT22;9487;50.892;6.906;2022-08-19T02:45:43;19.30;99.90
18717;DHT22;9487;50.892;6.906;2022-08-19T02:48:11;19.30;99.90
18717;DHT22;9487;50.892;6.906;2022-08-19T02:50:39;19.40;99.90
18717;DHT22;9487;50.892;6.906;2022-08-19T02:53:06;19.40;99.90
18717;DHT22;9487;50.892;6.906;2022-08-19T02:55:33;19.40;99.90
18717;DHT22;9487;50.892;6.906;2022-08-19T02:58:01;19.50;99.90
18717;DHT22;9487;50.892;6.906;2022-08-19T03:00:28;19.50;99.90
18717;DHT22;9487;50.892;6.906;2022-08-19T03:02:55;19.50;99.90
18717;DHT22;9487;50.892;6.906;2022-08-19T03:05:24;19.70;99.90
18717;DHT22;9487;50.892;6.906;2022-08-19T03:07:51;19.50;99.90
18717;DHT22;9487;50.892;6.906;2022-08-19T03:10:18;19.30;99.90
18717;DHT22;9487;50.892;6.906;2022-08-19T03:12:46;19.30;99.90
18717;DHT22;9487;50.892;6.906;2022-08-19T03:15:13;19.30;99.90
18717;DHT22;9487;50.892;6.906;2022-08-19T03:17:40;19.40;99.90
18717;DHT22;9487;50.892;6.906;2022-08-19T03:20:08;19.30;99.90
18717;DHT22;9487;50.892;6.906;2022-08-19T03:22:36;19.30;99.90
18717;DHT22;9487;50.892;6.906;2022-08-19T03:25:04;19.40;99.90
18717;DHT22;9487;50.892;6.906;2022-08-19T03:27:31;19.50;99.90
18717;DHT22;9487;50.892;6.906;2022-08-19T03:29:59;19.70;99.90
18717;DHT22;9487;50.892;6.906;2022-08-19T03:32:26;19.70;99.90
18717;DHT22;9487;50.892;6.906;2022-08-19T03:34:53;19.60;99.90
18717;DHT22;9487;50.892;6.906;2022-08-19T03:37:20;19.50;99.90
18717;DHT22;9487;50.892;6.906;2022-08-19T03:39:49;19.40;99.90
18717;DHT22;9487;50.892;6.906;2022-08-19T03:42:16;19.40;99.90
18717;DHT22;9487;50.892;6.906;2022-08-19T03:44:43;19.60;99.90
18717;DHT22;9487;50.892;6.906;2022-08-19T03:47:11;19.70;99.90
18717;DHT22;9487;50.892;6.906;2022-08-19T03:49:41;19.70;99.90
18717;DHT22;9487;50.892;6.906;2022-08-19T03:52:08;19.70;99.90
18717;DHT22;9487;50.892;6.906;2022-08-19T03:54:35;19.60;99.90
18717;DHT22;9487;50.892;6.906;2022-08-19T03:57:05;19.60;99.90
18717;DHT22;9487;50.892;6.906;2022-08-19T03:59:35;19.50;99.90
18717;DHT22;9487;50.892;6.906;2022-08-19T04:02:07;19.40;99.90
18717;DHT22;9487;50.892;6.906;2022-08-19T04:04:34;19.50;99.90
18717;DHT22;9487;50.892;6.906;2022-08-19T04:07:02;19.40;99.90
18717;DHT22;9487;50.892;6.906;2022-08-19T04:09:30;19.40;99.90
18717;DHT22;9487;50.892;6.906;2022-08-19T04:11:58;19.40;99.90
18717;DHT22;9487;50.892;6.906;2022-08-19T04:14:28;19.50;99.90
18717;DHT22;9487;50.892;6.906;2022-08-19T04:16:57;19.40;99.90
18717;DHT22;9487;50.892;6.906;2022-08-19T04:19:24;19.40;99.90
18717;DHT22;9487;50.892;6.906;2022-08-19T04:21:53;19.40;99.90
18717;DHT22;9487;50.892;6.906;2022-08-19T04:24:21;19.40;99.90
18717;DHT22;9487;50.892;6.906;2022-08-19T04:26:49;19.30;99.90
18717;DHT22;9487;50.892;6.906;2022-08-19T04:29:20;19.30;99.90
18717;DHT22;9487;50.892;6.906;2022-08-19T04:31:52;19.30;99.90
18717;DHT22;9487;50.892;6.906;2022-08-19T04:34:22;19.30;99.90
18717;DHT22;9487;50.892;6.906;2022-08-19T04:36:50;19.40;99.90
18717;DHT22;9487;50.892;6.906;2022-08-19T04:39:20;19.30;99.90
18717;DHT22;9487;50.892;6.906;2022-08-19T04:41:47;19.40;99.90
18717;DHT22;9487;50.892;6.906;2022-08-19T04:44:34;19.40;99.90
18717;DHT22;9487;50.892;6.906;2022-08-19T04:47:03;19.40;99.90
18717;DHT22;9487;50.892;6.906;2022-08-19T04:49:31;19.40;99.90
18717;DHT22;9487;50.892;6.906;2022-08-19T04:51:58;19.40;99.90
18717;DHT22;9487;50.892;6.906;2022-08-19T04:54:25;19.40;99.90
18717;DHT22;9487;50.892;6.906;2022-08-19T04:56:53;19.50;99.90
18717;DHT22;9487;50.892;6.906;2022-08-19T04:59:20;19.50;99.90
18717;DHT22;9487;50.892;6.906;2022-08-19T05:01:48;19.50;99.90
18717;DHT22;9487;50.892;6.906;2022-08-19T05:04:18;19.50;99.90
18717;DHT22;9487;50.892;6.906;2022-08-19T05:06:46;19.60;99.90
18717;DHT22;9487;50.892;6.906;2022-08-19T05:09:13;19.50;99.90
18717;DHT22;9487;50.892;6.906;2022-08-19T05:11:41;19.40;99.90
18717;DHT22;9487;50.892;6.906;2022-08-19T05:14:08;19.60;99.90
18717;DHT22;9487;50.892;6.906;2022-08-19T05:16:38;19.50;99.90
18717;DHT22;9487;50.892;6.906;2022-08-19T05:19:05;19.40;99.90
18717;DHT22;9487;50.892;6.906;2022-08-19T05:21:50;19.40;99.90
18717;DHT22;9487;50.892;6.906;2022-08-19T05:24:36;19.60;99.90
18717;DHT22;9487;50.892;6.906;2022-08-19T05:27:03;19.90;99.90
18717;DHT22;9487;50.892;6.906;2022-08-19T05:29:31;19.90;99.90
18717;DHT22;9487;50.892;6.906;2022-08-19T05:32:00;19.80;99.90
18717;DHT22;9487;50.892;6.906;2022-08-19T05:34:27;19.80;99.90
18717;DHT22;9487;50.892;6.906;2022-08-19T05:36:57;19.60;99.90
18717;DHT22;9487;50.892;6.906;2022-08-19T05:39:27;19.70;99.90
18717;DHT22;9487;50.892;6.906;2022-08-19T05:41:56;19.70;99.90
18717;DHT22;9487;50.892;6.906;2022-08-19T05:44:25;19.80;99.90
18717;DHT22;9487;50.892;6.906;2022-08-19T05:46:52;19.90;99.90
18717;DHT22;9487;50.892;6.906;2022-08-19T05:49:21;19.80;99.90
18717;DHT22;9487;50.892;6.906;2022-08-19T05:51:48;19.80;99.90
18717;DHT22;9487;50.892;6.906;2022-08-19T05:54:17;19.70;99.90
18717;DHT22;9487;50.892;6.906;2022-08-19T05:56:45;19.60;99.90
18717;DHT22;9487;50.892;6.906;2022-08-19T05:59:14;19.50;99.90
18717;DHT22;9487;50.892;6.906;2022-08-19T06:01:43;19.60;99.90
18717;DHT22;9487;50.892;6.906;2022-08-19T06:04:11;19.50;99.90
18717;DHT22;9487;50.892;6.906;2022-08-19T06:06:39;19.60;99.90
18717;DHT22;9487;50.892;6.906;2022-08-19T06:09:07;19.60;99.90
18717;DHT22;9487;50.892;6.906;2022-08-19T06:11:38;19.60;99.90
18717;DHT22;9487;50.892;6.906;2022-08-19T06:14:08;19.50;99.90
18717;DHT22;9487;50.892;6.906;2022-08-19T06:16:36;19.60;99.90
18717;DHT22;9487;50.892;6.906;2022-08-19T06:19:06;19.30;99.90
18717;DHT22;9487;50.892;6.906;2022-08-19T06:21:34;19.30;99.90
18717;DHT22;9487;50.892;6.906;2022-08-19T06:24:03;19.50;99.90
18717;DHT22;9487;50.892;6.906;2022-08-19T06:26:33;19.60;99.90
18717;DHT22;9487;50.892;6.906;2022-08-19T06:29:02;19.70;99.90
18717;DHT22;9487;50.892;6.906;2022-08-19T06:31:32;19.80;99.90
18717;DHT22;9487;50.892;6.906;2022-08-19T06:34:00;19.90;99.90
18717;DHT22;9487;50.892;6.906;2022-08-19T06:36:30;19.90;99.90
18717;DHT22;9487;50.892;6.906;2022-08-19T06:39:00;19.90;99.90
18717;DHT22;9487;50.892;6.906;2022-08-19T06:41:27;20.00;99.90
18717;DHT22;9487;50.892;6.906;2022-08-19T06:43:55;20.10;99.90
18717;DHT22;9487;50.892;6.906;2022-08-19T06:46:23;20.00;99.90
18717;DHT22;9487;50.892;6.906;2022-08-19T06:48:50;19.90;99.90
18717;DHT22;9487;50.892;6.906;2022-08-19T06:51:19;20.00;99.90
18717;DHT22;9487;50.892;6.906;2022-08-19T06:53:47;20.00;99.90
18717;DHT22;9487;50.892;6.906;2022-08-19T06:56:16;20.10;99.90
18717;DHT22;9487;50.892;6.906;2022-08-19T06:58:44;20.30;99.90
18717;DHT22;9487;50.892;6.906;2022-08-19T07:01:12;20.50;99.90
18717;DHT22;9487;50.892;6.906;2022-08-19T07:03:40;20.80;99.90
18717;DHT22;9487;50.892;6.906;2022-08-19T07:06:10;20.90;99.90
18717;DHT22;9487;50.892;6.906;2022-08-19T07:08:38;21.00;99.90
18717;DHT22;9487;50.892;6.906;2022-08-19T07:11:06;20.90;99.90
18717;DHT22;9487;50.892;6.906;2022-08-19T07:13:34;20.80;99.90
18717;DHT22;9487;50.892;6.906;2022-08-19T07:16:04;21.00;99.90
18717;DHT22;9487;50.892;6.906;2022-08-19T07:18:31;20.90;99.90
18717;DHT22;9487;50.892;6.906;2022-08-19T07:21:05;20.80;99.90
18717;DHT22;9487;50.892;6.906;2022-08-19T07:23:33;20.70;99.90
18717;DHT22;9487;50.892;6.906;2022-08-19T07:26:05;20.60;99.90
18717;DHT22;9487;50.892;6.906;2022-08-19T07:28:32;20.70;99.90
18717;DHT22;9487;50.892;6.906;2022-08-19T07:31:00;20.50;99.90
18717;DHT22;9487;50.892;6.906;2022-08-19T07:33:29;20.70;99.90
18717;DHT22;9487;50.892;6.906;2022-08-19T07:35:58;20.90;99.90
18717;DHT22;9487;50.892;6.906;2022-08-19T07:38:26;20.50;99.90
18717;DHT22;9487;50.892;6.906;2022-08-19T07:40:53;20.40;99.90
18717;DHT22;9487;50.892;6.906;2022-08-19T07:43:20;20.20;99.90
18717;DHT22;9487;50.892;6.906;2022-08-19T07:45:51;20.10;99.90
18717;DHT22;9487;50.892;6.906;2022-08-19T07:48:18;20.00;99.90
18717;DHT22;9487;50.892;6.906;2022-08-19T07:50:45;20.10;99.90
18717;DHT22;9487;50.892;6.906;2022-08-19T07:53:13;20.10;99.90
18717;DHT22;9487;50.892;6.906;2022-08-19T07:55:42;20.20;99.90
18717;DHT22;9487;50.892;6.906;2022-08-19T07:58:09;20.20;99.90
18717;DHT22;9487;50.892;6.906;2022-08-19T08:00:36;20.10;99.90
18717;DHT22;9487;50.892;6.906;2022-08-19T08:03:04;20.20;99.90
18717;DHT22;9487;50.892;6.906;2022-08-19T08:05:31;20.20;99.90
18717;DHT22;9487;50.892;6.906;2022-08-19T08:08:15;20.40;99.90
18717;DHT22;9487;50.892;6.906;2022-08-19T08:11:04;20.70;99.90
18717;DHT22;9487;50.892;6.906;2022-08-19T08:13:31;21.00;99.90
18717;DHT22;9487;50.892;6.906;2022-08-19T08:16:01;21.10;99.90
18717;DHT22;9487;50.892;6.906;2022-08-19T08:18:28;21.20;99.90
18717;DHT22;9487;50.892;6.906;2022-08-19T08:20:55;21.20;99.90
18717;DHT22;9487;50.892;6.906;2022-08-19T08:23:23;21.20;99.90
18717;DHT22;9487;50.892;6.906;2022-08-19T08:25:52;20.80;99.90
18717;DHT22;9487;50.892;6.906;2022-08-19T08:28:22;20.90;99.90
18717;DHT22;9487;50.892;6.906;2022-08-19T08:30:50;21.10;99.90
18717;DHT22;9487;50.892;6.906;2022-08-19T08:33:18;21.20;99.90
18717;DHT22;9487;50.892;6.906;2022-08-19T08:35:45;21.00;99.90
18717;DHT22;9487;50.892;6.906;2022-08-19T08:38:13;21.00;99.90
18717;DHT22;9487;50.892;6.906;2022-08-19T08:40:44;21.30;99.90
18717;DHT22;9487;50.892;6.906;2022-08-19T08:43:22;21.50;99.90
18717;DHT22;9487;50.892;6.906;2022-08-19T08:45:56;21.40;99.90
18717;DHT22;9487;50.892;6.906;2022-08-19T08:48:34;21.30;99.90
18717;DHT22;9487;50.892;6.906;2022-08-19T08:51:04;21.20;99.90
18717;DHT22;9487;50.892;6.906;2022-08-19T08:53:34;21.40;99.90
18717;DHT22;9487;50.892;6.906;2022-08-19T08:56:03;21.70;99.90
18717;DHT22;9487;50.892;6.906;2022-08-19T08:58:43;22.00;99.90
18717;DHT22;9487;50.892;6.906;2022-08-19T09:01:12;22.20;99.90
18717;DHT22;9487;50.892;6.906;2022-08-19T09:03:40;22.10;99.90
18717;DHT22;9487;50.892;6.906;2022-08-19T09:06:13;22.30;99.90
18717;DHT22;9487;50.892;6.906;2022-08-19T09:08:47;22.10;99.90
18717;DHT22;9487;50.892;6.906;2022-08-19T09:11:19;22.40;99.90
18717;DHT22;9487;50.892;6.906;2022-08-19T09:13:59;22.70;99.90
18717;DHT22;9487;50.892;6.906;2022-08-19T09:16:28;22.30;99.90
18717;DHT22;9487;50.892;6.906;2022-08-19T09:19:06;22.40;99.90
18717;DHT22;9487;50.892;6.906;2022-08-19T09:21:34;22.50;99.90
18717;DHT22;9487;50.892;6.906;2022-08-19T09:24:02;22.80;99.90
18717;DHT22;9487;50.892;6.906;2022-08-19T09:26:30;22.80;99.90
18717;DHT22;9487;50.892;6.906;2022-08-19T09:28:59;22.90;99.90
18717;DHT22;9487;50.892;6.906;2022-08-19T09:31:28;22.80;99.90
18717;DHT22;9487;50.892;6.906;2022-08-19T09:33:56;23.10;99.90
18717;DHT22;9487;50.892;6.906;2022-08-19T09:36:24;23.20;99.90
18717;DHT22;9487;50.892;6.906;2022-08-19T09:38:55;23.30;99.90
18717;DHT22;9487;50.892;6.906;2022-08-19T09:41:23;23.30;99.90
18717;DHT22;9487;50.892;6.906;2022-08-19T09:43:52;23.50;99.90
18717;DHT22;9487;50.892;6.906;2022-08-19T09:46:23;23.30;99.90
18717;DHT22;9487;50.892;6.906;2022-08-19T09:48:52;23.10;99.90
18717;DHT22;9487;50.892;6.906;2022-08-19T09:51:21;23.40;99.90
18717;DHT22;9487;50.892;6.906;2022-08-19T09:53:49;23.40;99.90
18717;DHT22;9487;50.892;6.906;2022-08-19T09:56:18;23.30;99.90
18717;DHT22;9487;50.892;6.906;2022-08-19T09:58:45;23.40;99.90
18717;DHT22;9487;50.892;6.906;2022-08-19T10:01:16;23.40;99.90
18717;DHT22;9487;50.892;6.906;2022-08-19T10:03:47;23.70;99.90
18717;DHT22;9487;50.892;6.906;2022-08-19T10:06:15;23.90;99.90
18717;DHT22;9487;50.892;6.906;2022-08-19T10:08:42;24.00;99.90
18717;DHT22;9487;50.892;6.906;2022-08-19T10:11:10;24.40;99.90
18717;DHT22;9487;50.892;6.906;2022-08-19T10:13:37;24.20;99.90
18717;DHT22;9487;50.892;6.906;2022-08-19T10:16:06;24.60;99.90
18717;DHT22;9487;50.892;6.906;2022-08-19T10:18:36;24.70;99.90
18717;DHT22;9487;50.892;6.906;2022-08-19T10:21:07;24.90;99.90
18717;DHT22;9487;50.892;6.906;2022-08-19T10:23:35;24.70;99.90
18717;DHT22;9487;50.892;6.906;2022-08-19T10:26:03;24.30;99.90
18717;DHT22;9487;50.892;6.906;2022-08-19T10:28:32;24.10;99.90
18717;DHT22;9487;50.892;6.906;2022-08-19T10:31:04;24.30;99.90
18717;DHT22;9487;50.892;6.906;2022-08-19T10:33:31;24.70;99.90
18717;DHT22;9487;50.892;6.906;2022-08-19T10:36:00;25.00;99.90
18717;DHT22;9487;50.892;6.906;2022-08-19T10:38:28;25.00;99.90
18717;DHT22;9487;50.892;6.906;2022-08-19T10:40:55;24.80;99.90
18717;DHT22;9487;50.892;6.906;2022-08-19T10:43:22;24.50;99.90
18717;DHT22;9487;50.892;6.906;2022-08-19T10:45:52;24.50;99.90
18717;DHT22;9487;50.892;6.906;2022-08-19T10:48:22;24.80;99.90
18717;DHT22;9487;50.892;6.906;2022-08-19T10:50:49;24.60;99.90
18717;DHT22;9487;50.892;6.906;2022-08-19T10:53:35;24.70;99.90
18717;DHT22;9487;50.892;6.906;2022-08-19T10:56:02;24.60;99.90
18717;DHT22;9487;50.892;6.906;2022-08-19T10:58:47;24.40;99.90
18717;DHT22;9487;50.892;6.906;2022-08-19T11:01:14;24.50;99.90
18717;DHT22;9487;50.892;6.906;2022-08-19T11:03:41;24.80;99.90
18717;DHT22;9487;50.892;6.906;2022-08-19T11:06:11;25.10;99.90
18717;DHT22;9487;50.892;6.906;2022-08-19T11:08:40;24.70;99.90
18717;DHT22;9487;50.892;6.906;2022-08-19T11:11:07;24.50;99.90
18717;DHT22;9487;50.892;6.906;2022-08-19T11:13:37;24.50;99.90
18717;DHT22;9487;50.892;6.906;2022-08-19T11:16:08;24.60;99.90
18717;DHT22;9487;50.892;6.906;2022-08-19T11:18:38;24.40;99.90
18717;DHT22;9487;50.892;6.906;2022-08-19T11:21:10;24.50;99.90
18717;DHT22;9487;50.892;6.906;2022-08-19T11:23:39;24.80;99.90
18717;DHT22;9487;50.892;6.906;2022-08-19T11:26:06;24.50;99.90
18717;DHT22;9487;50.892;6.906;2022-08-19T11:28:34;24.50;99.90
18717;DHT22;9487;50.892;6.906;2022-08-19T11:31:01;24.50;99.90
18717;DHT22;9487;50.892;6.906;2022-08-19T11:33:29;24.50;99.90
18717;DHT22;9487;50.892;6.906;2022-08-19T11:35:57;25.00;99.90
18717;DHT22;9487;50.892;6.906;2022-08-19T11:38:25;25.30;99.90
18717;DHT22;9487;50.892;6.906;2022-08-19T11:40:57;25.40;99.90
18717;DHT22;9487;50.892;6.906;2022-08-19T11:43:25;25.60;99.90
18717;DHT22;9487;50.892;6.906;2022-08-19T11:45:52;25.90;99.90
18717;DHT22;9487;50.892;6.906;2022-08-19T11:48:20;26.00;99.90
18717;DHT22;9487;50.892;6.906;2022-08-19T11:50:48;26.00;99.90
18717;DHT22;9487;50.892;6.906;2022-08-19T11:53:15;26.10;99.90
18717;DHT22;9487;50.892;6.906;2022-08-19T11:55:44;26.10;99.90
18717;DHT22;9487;50.892;6.906;2022-08-19T11:58:13;26.10;99.90
18717;DHT22;9487;50.892;6.906;2022-08-19T12:00:40;26.00;99.90
18717;DHT22;9487;50.892;6.906;2022-08-19T12:03:08;26.10;99.90
18717;DHT22;9487;50.892;6.906;2022-08-19T12:05:36;26.10;99.90
18717;DHT22;9487;50.892;6.906;2022-08-19T12:08:04;25.80;99.90
18717;DHT22;9487;50.892;6.906;2022-08-19T12:10:31;25.60;99.90
18717;DHT22;9487;50.892;6.906;2022-08-19T12:12:58;25.90;99.90
18717;DHT22;9487;50.892;6.906;2022-08-19T12:15:27;25.60;99.90
18717;DHT22;9487;50.892;6.906;2022-08-19T12:17:54;25.70;99.90
18717;DHT22;9487;50.892;6.906;2022-08-19T12:20:22;25.80;99.90
18717;DHT22;9487;50.892;6.906;2022-08-19T12:22:50;25.40;99.90
18717;DHT22;9487;50.892;6.906;2022-08-19T12:25:17;25.20;99.90
18717;DHT22;9487;50.892;6.906;2022-08-19T12:27:44;25.50;99.90
18717;DHT22;9487;50.892;6.906;2022-08-19T12:30:13;25.80;99.90
18717;DHT22;9487;50.892;6.906;2022-08-19T12:32:41;26.10;99.90
18717;DHT22;9487;50.892;6.906;2022-08-19T12:35:08;26.20;99.90
18717;DHT22;9487;50.892;6.906;2022-08-19T12:37:35;26.30;99.90
18717;DHT22;9487;50.892;6.906;2022-08-19T12:40:04;26.30;99.90
18717;DHT22;9487;50.892;6.906;2022-08-19T12:42:31;26.20;99.90
18717;DHT22;9487;50.892;6.906;2022-08-19T12:44:58;26.50;99.90
18717;DHT22;9487;50.892;6.906;2022-08-19T12:47:25;26.50;99.90
18717;DHT22;9487;50.892;6.906;2022-08-19T12:49:54;26.10;99.90
18717;DHT22;9487;50.892;6.906;2022-08-19T12:52:23;25.70;99.90
18717;DHT22;9487;50.892;6.906;2022-08-19T12:54:51;25.20;99.90
18717;DHT22;9487;50.892;6.906;2022-08-19T12:57:19;25.20;99.90
18717;DHT22;9487;50.892;6.906;2022-08-19T12:59:46;25.40;99.90
18717;DHT22;9487;50.892;6.906;2022-08-19T13:02:12;25.60;99.90
18717;DHT22;9487;50.892;6.906;2022-08-19T13:04:39;25.90;99.90
18717;DHT22;9487;50.892;6.906;2022-08-19T13:07:08;25.90;99.90
18717;DHT22;9487;50.892;6.906;2022-08-19T13:09:35;26.00;99.90
18717;DHT22;9487;50.892;6.906;2022-08-19T13:12:03;26.10;99.90
18717;DHT22;9487;50.892;6.906;2022-08-19T13:14:33;26.00;99.90
18717;DHT22;9487;50.892;6.906;2022-08-19T13:17:00;26.10;99.90
18717;DHT22;9487;50.892;6.906;2022-08-19T13:19:27;25.90;99.90
18717;DHT22;9487;50.892;6.906;2022-08-19T13:21:56;25.70;99.90
18717;DHT22;9487;50.892;6.906;2022-08-19T13:24:25;25.90;99.90
18717;DHT22;9487;50.892;6.906;2022-08-19T13:26:52;25.90;99.90
18717;DHT22;9487;50.892;6.906;2022-08-19T13:29:19;26.00;99.90
18717;DHT22;9487;50.892;6.906;2022-08-19T13:32:04;26.30;99.90
18717;DHT22;9487;50.892;6.906;2022-08-19T13:34:48;26.20;99.90
18717;DHT22;9487;50.892;6.906;2022-08-19T13:37:15;26.30;99.90
18717;DHT22;9487;50.892;6.906;2022-08-19T13:40:05;26.20;99.90
18717;DHT22;9487;50.892;6.906;2022-08-19T13:42:32;26.20;99.90
18717;DHT22;9487;50.892;6.906;2022-08-19T13:44:59;26.30;99.90
18717;DHT22;9487;50.892;6.906;2022-08-19T13:47:26;26.30;99.90
18717;DHT22;9487;50.892;6.906;2022-08-19T13:49:53;26.50;99.90
18717;DHT22;9487;50.892;6.906;2022-08-19T13:52:20;26.70;99.90
18717;DHT22;9487;50.892;6.906;2022-08-19T13:54:47;26.50;99.90
18717;DHT22;9487;50.892;6.906;2022-08-19T13:57:16;26.60;99.90
18717;DHT22;9487;50.892;6.906;2022-08-19T13:59:43;26.50;99.90
18717;DHT22;9487;50.892;6.906;2022-08-19T14:02:10;26.40;99.90
18717;DHT22;9487;50.892;6.906;2022-08-19T14:04:37;26.60;99.90
18717;DHT22;9487;50.892;6.906;2022-08-19T14:07:04;26.90;99.90
18717;DHT22;9487;50.892;6.906;2022-08-19T14:09:31;26.90;99.90
18717;DHT22;9487;50.892;6.906;2022-08-19T14:11:58;26.90;99.90
18717;DHT22;9487;50.892;6.906;2022-08-19T14:14:26;26.30;99.90
18717;DHT22;9487;50.892;6.906;2022-08-19T14:16:54;26.30;99.90
18717;DHT22;9487;50.892;6.906;2022-08-19T14:19:21;26.40;99.90
18717;DHT22;9487;50.892;6.906;2022-08-19T14:21:49;26.70;99.90
18717;DHT22;9487;50.892;6.906;2022-08-19T14:24:16;26.90;99.90
18717;DHT22;9487;50.892;6.906;2022-08-19T14:26:43;26.70;99.90
18717;DHT22;9487;50.892;6.906;2022-08-19T14:29:10;26.30;99.90
18717;DHT22;9487;50.892;6.906;2022-08-19T14:31:39;26.50;99.90
18717;DHT22;9487;50.892;6.906;2022-08-19T14:34:06;26.70;99.90
18717;DHT22;9487;50.892;6.906;2022-08-19T14:36:33;26.40;99.90
18717;DHT22;9487;50.892;6.906;2022-08-19T14:39:00;26.70;99.90
18717;DHT22;9487;50.892;6.906;2022-08-19T14:41:27;26.80;99.90
18717;DHT22;9487;50.892;6.906;2022-08-19T14:43:56;26.70;99.90
18717;DHT22;9487;50.892;6.906;2022-08-19T14:46:26;26.70;99.90
18717;DHT22;9487;50.892;6.906;2022-08-19T14:48:55;26.90;99.90
18717;DHT22;9487;50.892;6.906;2022-08-19T14:51:24;26.90;99.90
18717;DHT22;9487;50.892;6.906;2022-08-19T14:53:53;27.20;99.90
18717;DHT22;9487;50.892;6.906;2022-08-19T14:56:23;27.30;99.90
18717;DHT22;9487;50.892;6.906;2022-08-19T14:58:51;27.40;99.90
18717;DHT22;9487;50.892;6.906;2022-08-19T15:01:19;27.60;99.90
18717;DHT22;9487;50.892;6.906;2022-08-19T15:03:47;27.80;99.90
18717;DHT22;9487;50.892;6.906;2022-08-19T15:06:16;27.50;99.90
18717;DHT22;9487;50.892;6.906;2022-08-19T15:08:43;27.10;99.90
18717;DHT22;9487;50.892;6.906;2022-08-19T15:11:13;27.30;99.90
18717;DHT22;9487;50.892;6.906;2022-08-19T15:13:41;27.40;99.90
18717;DHT22;9487;50.892;6.906;2022-08-19T15:16:09;27.70;99.90
18717;DHT22;9487;50.892;6.906;2022-08-19T15:18:36;27.80;99.90
18717;DHT22;9487;50.892;6.906;2022-08-19T15:21:04;27.10;99.90
18717;DHT22;9487;50.892;6.906;2022-08-19T15:23:34;27.30;99.90
18717;DHT22;9487;50.892;6.906;2022-08-19T15:26:01;27.70;99.90
18717;DHT22;9487;50.892;6.906;2022-08-19T15:28:28;27.90;99.90
18717;DHT22;9487;50.892;6.906;2022-08-19T15:30:56;28.10;99.90
18717;DHT22;9487;50.892;6.906;2022-08-19T15:33:23;27.60;99.90
18717;DHT22;9487;50.892;6.906;2022-08-19T15:35:51;27.00;99.90
18717;DHT22;9487;50.892;6.906;2022-08-19T15:38:19;26.90;99.90
18717;DHT22;9487;50.892;6.906;2022-08-19T15:40:50;27.40;99.90
18717;DHT22;9487;50.892;6.906;2022-08-19T15:43:18;27.10;99.90
18717;DHT22;9487;50.892;6.906;2022-08-19T15:45:47;27.40;99.90
18717;DHT22;9487;50.892;6.906;2022-08-19T15:48:14;27.60;99.90
18717;DHT22;9487;50.892;6.906;2022-08-19T15:50:41;27.50;99.90
18717;DHT22;9487;50.892;6.906;2022-08-19T15:53:09;27.50;99.90
18717;DHT22;9487;50.892;6.906;2022-08-19T15:55:42;27.50;99.90